Time;durP1;ratioP1;P1;durP2;ratioP2;P2;SDS_P1;SDS_P2;PMS_P1;PMS_P2;Temp;Humidity;BMP_temperature;BMP_pressure;BME280_temperature;BME280_humidity;BME280_pressure;Samples;Min_cycle;Max_cycle;Signal;HPM_P1;HPM_P2
2022/09/12 00:01:13;;;;;;;9.70;7.57;;;13.10;99.90;;;;;;5043039;28;20095;-69
2022/09/12 00:03:41;;;;;;;12.43;9.00;;;13.00;99.90;;;;;;5048666;28;20041;-69
2022/09/12 00:06:13;;;;;;;10.57;8.32;;;13.00;99.90;;;;;;5017387;28;20049;-69
2022/09/12 00:08:45;;;;;;;12.38;8.40;;;13.00;99.90;;;;;;5026749;28;20063;-69
2022/09/12 00:11:13;;;;;;;10.10;8.15;;;13.00;99.90;;;;;;5032904;28;20100;-69
2022/09/12 00:13:41;;;;;;;12.80;8.73;;;13.00;99.90;;;;;;5027449;28;20049;-69
2022/09/12 00:16:18;;;;;;;14.35;8.65;;;13.00;99.90;;;;;;5028782;28;20058;-70
2022/09/12 00:18:45;;;;;;;11.23;8.82;;;13.00;99.90;;;;;;5034890;28;20131;-70
2022/09/12 00:21:14;;;;;;;12.30;8.57;;;13.00;99.90;;;;;;5027626;28;20042;-69
2022/09/12 00:23:42;;;;;;;12.02;7.80;;;13.00;99.90;;;;;;5030506;28;20056;-69
2022/09/12 00:26:10;;;;;;;10.63;8.52;;;13.00;99.90;;;;;;5014024;28;20084;-69
2022/09/12 00:28:39;;;;;;;10.20;7.80;;;12.90;99.90;;;;;;5015693;28;20120;-69
2022/09/12 00:31:09;;;;;;;11.35;8.80;;;12.90;99.90;;;;;;5036650;28;20136;-69
2022/09/12 00:33:37;;;;;;;10.00;8.07;;;12.90;99.90;;;;;;5038690;28;20496;-68
2022/09/12 00:36:24;;;;;;;12.27;8.85;;;12.90;99.90;;;;;;5029568;28;20042;-68
2022/09/12 00:38:53;;;;;;;10.43;8.07;;;12.80;99.90;;;;;;5031482;28;20045;-69
2022/09/12 00:41:27;;;;;;;10.38;8.20;;;12.80;99.90;;;;;;5016583;28;20538;-69
2022/09/12 00:43:58;;;;;;;11.68;8.32;;;12.70;99.90;;;;;;5029533;28;20111;-69
2022/09/12 00:46:47;;;;;;;9.88;7.93;;;12.70;99.90;;;;;;5022108;28;20136;-69
2022/09/12 00:49:36;;;;;;;10.77;8.43;;;12.70;99.90;;;;;;5025352;28;20045;-69
2022/09/12 00:52:07;;;;;;;10.50;8.27;;;12.60;99.90;;;;;;5033898;28;20384;-69
2022/09/12 00:54:41;;;;;;;9.98;8.25;;;12.60;99.90;;;;;;5042989;28;20073;-69
2022/09/12 00:57:12;;;;;;;11.85;9.23;;;12.60;99.90;;;;;;5023317;28;20448;-69
2022/09/12 00:59:51;;;;;;;10.73;8.48;;;12.50;99.90;;;;;;5024627;28;20045;-69
2022/09/12 01:02:18;;;;;;;12.10;8.85;;;12.50;99.90;;;;;;5032141;28;20542;-69
2022/09/12 01:04:46;;;;;;;10.98;8.40;;;12.50;99.90;;;;;;5031667;28;20140;-69
2022/09/12 01:07:14;;;;;;;10.98;8.73;;;12.50;99.90;;;;;;5031391;28;20594;-68
2022/09/12 01:09:44;;;;;;;12.93;9.30;;;12.50;99.90;;;;;;5026448;28;20516;-69
2022/09/12 01:12:13;;;;;;;11.65;8.60;;;12.50;99.90;;;;;;5036989;28;20044;-69
2022/09/12 01:14:41;;;;;;;9.85;8.18;;;12.50;99.90;;;;;;5027982;28;20515;-69
2022/09/12 01:17:13;;;;;;;10.43;8.38;;;12.50;99.90;;;;;;5039438;28;20049;-69
2022/09/12 01:20:03;;;;;;;11.75;7.93;;;12.50;99.90;;;;;;5037326;28;20041;-69
2022/09/12 01:22:36;;;;;;;11.77;7.75;;;12.40;99.90;;;;;;5033595;28;20037;-69
2022/09/12 01:25:32;;;;;;;10.10;7.82;;;12.40;99.90;;;;;;5036571;28;20041;-69
2022/09/12 01:28:29;;;;;;;12.20;8.27;;;12.40;99.90;;;;;;5022544;28;20457;-69
2022/09/12 01:31:06;;;;;;;10.82;8.57;;;12.30;99.90;;;;;;5039635;28;20045;-69
2022/09/12 01:33:45;;;;;;;13.07;9.60;;;12.30;99.90;;;;;;5035479;28;20507;-69
2022/09/12 01:36:58;;;;;;;12.30;9.43;;;12.40;99.90;;;;;;5007531;28;20076;-69
2022/09/12 01:39:51;;;;;;;12.65;8.77;;;12.40;99.90;;;;;;5012829;28;20073;-69
2022/09/12 01:42:51;;;;;;;14.18;9.75;;;12.40;99.90;;;;;;4986605;28;20102;-69
2022/09/12 01:45:24;;;;;;;11.07;8.85;;;12.40;99.90;;;;;;5025452;28;20480;-69
2022/09/12 01:48:14;;;;;;;10.27;8.52;;;12.40;99.90;;;;;;5027415;28;20049;-69
2022/09/12 01:51:12;;;;;;;11.73;9.38;;;12.30;99.90;;;;;;5032934;28;20579;-70
2022/09/12 01:53:47;;;;;;;12.90;9.13;;;12.30;99.90;;;;;;5020077;28;20099;-67
2022/09/12 01:56:20;;;;;;;14.27;9.48;;;12.30;99.90;;;;;;5012005;28;20045;-68
2022/09/12 01:59:23;;;;;;;11.75;9.52;;;12.30;99.90;;;;;;5025639;28;20144;-68
2022/09/12 02:01:57;;;;;;;12.35;9.70;;;12.20;99.90;;;;;;5035893;28;20055;-68
2022/09/12 02:04:29;;;;;;;13.00;8.48;;;12.20;99.90;;;;;;5031065;28;20049;-69
2022/09/12 02:07:06;;;;;;;10.55;7.47;;;12.10;99.90;;;;;;5021443;28;20045;-68
2022/09/12 02:09:51;;;;;;;9.77;7.45;;;12.10;99.90;;;;;;5020266;28;20038;-67
2022/09/12 02:12:24;;;;;;;10.43;7.47;;;12.10;99.90;;;;;;5030672;28;20048;-68
2022/09/12 02:14:58;;;;;;;10.90;7.15;;;12.00;99.90;;;;;;5035908;28;20056;-68
2022/09/12 02:17:26;;;;;;;8.40;6.85;;;12.00;99.90;;;;;;5031886;28;20555;-68
2022/09/12 02:20:09;;;;;;;8.90;7.13;;;11.90;99.90;;;;;;5027293;28;20075;-68
2022/09/12 02:22:49;;;;;;;10.55;6.95;;;11.90;99.90;;;;;;5033967;28;20057;-69
2022/09/12 02:25:18;;;;;;;8.48;6.68;;;11.90;99.90;;;;;;5021201;28;20053;-68
2022/09/12 02:27:52;;;;;;;10.88;8.60;;;11.90;99.90;;;;;;5025014;28;20056;-68
2022/09/12 02:30:20;;;;;;;13.15;8.88;;;11.90;99.90;;;;;;5017541;28;20496;-68
2022/09/12 02:33:09;;;;;;;12.52;9.00;;;11.90;99.90;;;;;;5043450;28;20071;-67
2022/09/12 02:36:21;;;;;;;11.23;7.78;;;11.90;99.90;;;;;;5024846;28;20550;-68
2022/09/12 02:38:49;;;;;;;11.53;8.47;;;12.00;99.90;;;;;;5022669;28;20073;-68
2022/09/12 02:41:19;;;;;;;11.45;8.65;;;12.00;99.90;;;;;;5025877;28;20053;-68
2022/09/12 02:43:49;;;;;;;10.52;7.65;;;12.00;99.90;;;;;;5028613;28;20037;-68
2022/09/12 02:46:28;;;;;;;11.52;8.43;;;11.90;99.90;;;;;;5026071;28;20050;-68
2022/09/12 02:48:55;;;;;;;10.70;8.18;;;11.90;99.90;;;;;;5021262;28;20118;-68
2022/09/12 02:51:24;;;;;;;10.75;8.70;;;11.90;99.90;;;;;;5024023;28;20069;-68
2022/09/12 02:53:52;;;;;;;9.95;8.05;;;11.90;99.90;;;;;;5020288;28;20588;-68
2022/09/12 02:56:26;;;;;;;12.05;9.30;;;12.00;99.90;;;;;;5029917;28;20053;-68
2022/09/12 02:58:58;;;;;;;11.00;8.38;;;11.90;99.90;;;;;;5033860;28;20033;-68
2022/09/12 03:01:58;;;;;;;11.70;8.60;;;11.90;99.90;;;;;;5031188;28;20045;-68
2022/09/12 03:04:44;;;;;;;12.50;8.82;;;11.90;99.90;;;;;;5016946;28;20498;-68
2022/09/12 03:07:30;;;;;;;10.52;8.35;;;11.90;99.90;;;;;;5020876;28;20094;-68
2022/09/12 03:10:29;;;;;;;10.50;7.32;;;11.80;99.90;;;;;;5031489;28;20067;-68
2022/09/12 03:13:29;;;;;;;10.48;7.60;;;11.80;99.90;;;;;;5040132;28;20052;-68
2022/09/12 03:16:05;;;;;;;12.73;8.93;;;11.80;99.90;;;;;;4999682;28;20069;-68
2022/09/12 03:19:10;;;;;;;11.27;8.57;;;11.80;99.90;;;;;;5008204;28;20067;-68
2022/09/12 03:21:46;;;;;;;11.45;8.80;;;11.80;99.90;;;;;;4981970;28;20045;-68
2022/09/12 03:24:34;;;;;;;11.55;8.55;;;11.80;99.90;;;;;;5023278;28;20053;-68
2022/09/12 03:27:20;;;;;;;14.32;9.43;;;11.80;99.90;;;;;;5022752;28;20049;-68
2022/09/12 03:29:49;;;;;;;12.07;7.97;;;11.80;99.90;;;;;;5007119;28;20052;-68
2022/09/12 03:32:16;;;;;;;12.52;7.97;;;11.80;99.90;;;;;;5007084;28;20096;-69
2022/09/12 03:34:44;;;;;;;11.93;9.02;;;11.80;99.90;;;;;;5024545;28;20045;-68
2022/09/12 03:37:11;;;;;;;13.18;8.93;;;11.70;99.90;;;;;;5023980;28;20137;-69
2022/09/12 03:39:38;;;;;;;9.68;7.88;;;11.70;99.90;;;;;;5004185;28;20522;-68
2022/09/12 03:42:06;;;;;;;10.68;8.18;;;11.60;99.90;;;;;;5007652;28;20057;-69
2022/09/12 03:44:33;;;;;;;9.55;7.07;;;11.60;99.90;;;;;;5008777;28;20069;-69
2022/09/12 03:47:01;;;;;;;13.90;7.78;;;11.50;99.90;;;;;;5027643;28;20049;-69
2022/09/12 03:49:28;;;;;;;9.48;6.95;;;11.50;99.90;;;;;;5010177;28;20034;-69
2022/09/12 03:51:55;;;;;;;10.45;6.97;;;11.40;99.90;;;;;;5029662;28;20063;-69
2022/09/12 03:54:23;;;;;;;12.25;7.50;;;11.40;99.90;;;;;;5043028;28;20038;-69
2022/09/12 03:56:50;;;;;;;9.73;6.80;;;11.40;99.90;;;;;;5039706;28;20542;-69
2022/09/12 03:59:17;;;;;;;10.20;7.65;;;11.40;99.90;;;;;;5038527;28;20041;-69
2022/09/12 04:01:45;;;;;;;9.80;7.32;;;11.30;99.90;;;;;;5017276;28;20040;-68
2022/09/12 04:04:12;;;;;;;9.82;6.97;;;11.30;99.90;;;;;;5022604;28;20129;-68
2022/09/12 04:06:40;;;;;;;11.90;7.38;;;11.30;99.90;;;;;;5021430;28;20091;-69
2022/09/12 04:09:08;;;;;;;10.52;7.13;;;11.30;99.90;;;;;;5019020;28;20526;-68
2022/09/12 04:11:35;;;;;;;12.05;7.50;;;11.40;99.90;;;;;;5029426;28;20056;-69
2022/09/12 04:14:03;;;;;;;8.70;6.57;;;11.40;99.90;;;;;;5036722;28;20052;-69
2022/09/12 04:16:31;;;;;;;12.00;8.32;;;11.40;99.90;;;;;;5041265;28;20050;-69
2022/09/12 04:18:58;;;;;;;11.38;7.78;;;11.40;99.90;;;;;;5042851;28;20622;-69
2022/09/12 04:21:25;;;;;;;9.93;7.70;;;11.40;99.90;;;;;;5042550;28;20049;-69
2022/09/12 04:23:53;;;;;;;9.43;7.03;;;11.50;99.90;;;;;;5038914;28;20441;-69
2022/09/12 04:26:20;;;;;;;11.20;7.13;;;11.50;99.90;;;;;;5038846;28;20432;-69
2022/09/12 04:28:52;;;;;;;10.23;7.22;;;11.50;99.90;;;;;;5017358;28;20065;-69
2022/09/12 04:31:21;;;;;;;;;;;11.50;99.90;;;;;;5032664;28;20507;-69
2022/09/12 04:34:00;;;;;;;10.48;7.70;;;11.50;99.90;;;;;;5036479;28;20458;-69
2022/09/12 04:36:28;;;;;;;9.85;7.47;;;11.50;99.90;;;;;;5031051;28;20418;-69
2022/09/12 04:38:55;;;;;;;11.75;7.68;;;11.50;99.90;;;;;;5020064;28;20065;-69
2022/09/12 04:41:26;;;;;;;10.55;7.18;;;11.50;99.90;;;;;;5035223;28;20372;-69
2022/09/12 04:44:01;;;;;;;10.38;8.07;;;11.60;99.90;;;;;;5032043;28;20037;-69
2022/09/12 04:46:31;;;;;;;10.15;7.95;;;11.70;99.90;;;;;;5032467;28;20411;-69
2022/09/12 04:48:59;;;;;;;11.43;7.43;;;11.70;99.90;;;;;;5008731;28;20486;-69
2022/09/12 04:51:29;;;;;;;10.35;7.80;;;11.70;99.90;;;;;;5017951;28;20207;-69
2022/09/12 04:54:00;;;;;;;11.07;7.28;;;11.80;99.90;;;;;;5038966;28;20048;-69
2022/09/12 04:56:29;;;;;;;11.77;8.48;;;11.80;99.90;;;;;;5033479;28;20515;-69
2022/09/12 04:58:58;;;;;;;11.95;8.45;;;11.80;99.90;;;;;;5016705;28;20459;-69
2022/09/12 05:01:27;;;;;;;10.75;7.75;;;11.90;99.90;;;;;;5015610;28;20526;-68
2022/09/12 05:03:55;;;;;;;10.63;7.93;;;11.90;99.90;;;;;;5026746;28;20122;-69
2022/09/12 05:06:25;;;;;;;11.57;8.18;;;11.90;99.90;;;;;;5016793;28;20052;-69
2022/09/12 05:08:53;;;;;;;11.23;7.47;;;12.00;99.90;;;;;;5037909;28;20444;-69
2022/09/12 05:11:23;;;;;;;9.13;6.88;;;12.00;99.90;;;;;;5047477;28;20423;-69
2022/09/12 05:13:59;;;;;;;11.23;6.97;;;12.00;99.90;;;;;;5047541;28;20144;-69
2022/09/12 05:16:27;;;;;;;10.15;6.47;;;11.90;99.90;;;;;;5047609;28;20084;-69
2022/09/12 05:18:57;;;;;;;12.52;8.32;;;11.90;99.90;;;;;;5044106;28;20131;-68
2022/09/12 05:21:25;;;;;;;13.55;9.25;;;12.00;99.90;;;;;;5046695;28;20037;-69
2022/09/12 05:23:54;;;;;;;12.23;8.50;;;12.00;99.90;;;;;;5039044;28;20059;-69
2022/09/12 05:26:22;;;;;;;13.70;10.02;;;12.00;99.90;;;;;;5015776;28;20049;-68
2022/09/12 05:28:51;;;;;;;17.58;10.52;;;12.00;99.90;;;;;;5015320;28;20512;-68
2022/09/12 05:31:23;;;;;;;16.27;10.40;;;12.00;99.90;;;;;;5014981;28;20044;-69
2022/09/12 05:33:53;;;;;;;15.32;10.50;;;12.10;99.90;;;;;;5019761;28;20154;-69
2022/09/12 05:36:30;;;;;;;15.00;9.75;;;12.10;99.90;;;;;;5040210;28;20136;-68
2022/09/12 05:39:01;;;;;;;12.43;8.80;;;12.10;99.90;;;;;;5013934;28;20041;-69
2022/09/12 05:41:30;;;;;;;14.23;9.35;;;12.20;99.90;;;;;;5020923;28;20051;-69
2022/09/12 05:43:59;;;;;;;14.27;9.43;;;12.20;99.90;;;;;;5012537;28;20037;-67
2022/09/12 05:46:29;;;;;;;15.13;9.63;;;12.20;99.90;;;;;;5027811;28;20041;-68
2022/09/12 05:49:01;;;;;;;12.68;9.23;;;12.30;99.90;;;;;;5025435;28;20069;-68
2022/09/12 05:51:32;;;;;;;12.63;8.88;;;12.30;99.90;;;;;;5024124;28;20045;-68
2022/09/12 05:54:02;;;;;;;14.18;11.00;;;12.40;99.90;;;;;;5009614;28;20054;-67
2022/09/12 05:56:32;;;;;;;13.77;10.35;;;12.50;99.90;;;;;;5012682;28;20153;-68
2022/09/12 05:59:02;;;;;;;15.27;9.90;;;12.60;99.90;;;;;;5007689;28;20148;-68
2022/09/12 06:01:31;;;;;;;14.82;10.65;;;12.80;99.90;;;;;;5010940;28;20483;-68
2022/09/12 06:04:00;;;;;;;13.25;10.00;;;12.90;99.90;;;;;;5027871;28;20467;-68
2022/09/12 06:06:29;;;;;;;14.23;10.38;;;13.00;99.90;;;;;;5001670;28;20380;-68
2022/09/12 06:09:00;;;;;;;15.80;11.18;;;13.10;99.90;;;;;;5022893;28;20052;-69
2022/09/12 06:11:29;;;;;;;13.57;10.07;;;13.10;99.90;;;;;;5003115;28;20054;-69
2022/09/12 06:13:58;;;;;;;14.55;10.70;;;13.20;99.90;;;;;;5015925;28;20045;-69
2022/09/12 06:16:31;;;;;;;14.70;11.50;;;13.30;99.90;;;;;;5031765;28;20045;-69
2022/09/12 06:19:00;;;;;;;17.63;11.88;;;13.40;99.90;;;;;;5036201;28;20424;-69
2022/09/12 06:21:30;;;;;;;16.98;11.43;;;13.50;99.90;;;;;;5023783;28;20084;-69
2022/09/12 06:23:58;;;;;;;14.45;10.13;;;13.50;99.90;;;;;;5025405;28;20124;-68
2022/09/12 06:26:26;;;;;;;13.52;10.50;;;13.60;99.90;;;;;;5004802;28;20045;-68
2022/09/12 06:28:55;;;;;;;14.10;10.52;;;13.70;99.90;;;;;;5029923;28;20103;-67
2022/09/12 06:31:28;;;;;;;14.27;9.80;;;13.60;99.90;;;;;;5035597;28;20055;-68
2022/09/12 06:33:58;;;;;;;20.83;11.57;;;13.60;99.90;;;;;;5035621;28;20053;-68
2022/09/12 06:36:28;;;;;;;18.17;11.45;;;13.70;99.90;;;;;;5046467;28;20063;-68
2022/09/12 06:38:57;;;;;;;15.77;11.23;;;13.70;99.90;;;;;;5029415;28;20073;-68
2022/09/12 06:41:26;;;;;;;15.52;10.60;;;13.70;99.90;;;;;;5042437;28;20046;-69
2022/09/12 06:43:53;;;;;;;14.38;10.45;;;13.80;99.90;;;;;;5036512;28;20116;-68
2022/09/12 06:46:21;;;;;;;17.33;11.95;;;13.90;99.90;;;;;;5041018;28;20519;-69
2022/09/12 06:48:49;;;;;;;17.25;11.25;;;14.00;99.90;;;;;;5032014;28;20481;-68
2022/09/12 06:51:18;;;;;;;19.80;11.75;;;14.10;99.90;;;;;;5013065;28;20104;-68
2022/09/12 06:53:47;;;;;;;19.35;12.27;;;14.10;99.90;;;;;;5026049;28;20069;-69
2022/09/12 06:56:18;;;;;;;20.25;12.23;;;14.10;99.90;;;;;;5030595;28;20053;-69
2022/09/12 06:58:46;;;;;;;18.80;12.20;;;14.00;99.90;;;;;;5012725;28;20033;-69
2022/09/12 07:01:22;;;;;;;17.75;12.00;;;14.10;99.90;;;;;;5037513;28;20442;-69
2022/09/12 07:03:52;;;;;;;19.05;12.43;;;14.00;99.90;;;;;;5031511;28;20508;-69
2022/09/12 07:06:23;;;;;;;18.38;11.20;;;14.10;99.90;;;;;;5024418;28;20069;-67
2022/09/12 07:08:51;;;;;;;18.30;11.73;;;14.10;99.90;;;;;;5025560;28;20423;-67
2022/09/12 07:11:24;;;;;;;17.75;11.63;;;14.00;99.90;;;;;;5023623;28;20037;-68
2022/09/12 07:13:54;;;;;;;15.38;11.05;;;13.90;99.90;;;;;;5029624;28;20072;-68
2022/09/12 07:16:21;;;;;;;19.70;11.05;;;14.00;99.90;;;;;;5026291;28;20522;-68
2022/09/12 07:18:54;;;;;;;16.23;10.45;;;14.00;99.90;;;;;;5022794;28;20040;-67
2022/09/12 07:21:21;;;;;;;16.70;11.27;;;14.00;99.90;;;;;;5023918;28;20479;-69
2022/09/12 07:23:50;;;;;;;20.80;11.98;;;14.10;99.90;;;;;;5033023;28;20045;-67
2022/09/12 07:26:18;;;;;;;13.85;10.30;;;14.20;99.90;;;;;;5041762;28;20096;-67
2022/09/12 07:28:52;;;;;;;21.58;11.02;;;14.40;99.90;;;;;;5030969;28;20500;-67
2022/09/12 07:31:21;;;;;;;18.58;11.85;;;14.50;99.90;;;;;;5045177;28;20040;-68
2022/09/12 07:33:49;;;;;;;18.77;11.23;;;14.60;99.90;;;;;;5039319;28;20436;-68
2022/09/12 07:36:24;;;;;;;15.95;11.13;;;14.70;99.90;;;;;;5016621;28;20092;-68
2022/09/12 07:38:55;;;;;;;18.13;12.00;;;14.90;99.90;;;;;;5026499;28;20078;-68
2022/09/12 07:41:26;;;;;;;18.67;11.75;;;15.00;99.90;;;;;;5037611;28;20037;-68
2022/09/12 07:43:55;;;;;;;16.80;12.02;;;15.10;99.90;;;;;;5036901;28;20580;-68
2022/09/12 07:46:24;;;;;;;18.08;11.32;;;15.20;99.90;;;;;;5025695;28;20054;-68
2022/09/12 07:48:52;;;;;;;15.85;11.65;;;15.30;99.90;;;;;;5019439;28;20072;-68
2022/09/12 07:51:21;;;;;;;15.98;11.35;;;15.30;99.90;;;;;;5042192;28;20072;-68
2022/09/12 07:53:50;;;;;;;15.20;11.07;;;15.40;99.90;;;;;;5022522;28;20045;-68
2022/09/12 07:56:18;;;;;;;15.63;11.80;;;15.50;99.90;;;;;;5029756;28;20115;-68
2022/09/12 07:58:46;;;;;;;17.67;12.00;;;15.70;99.90;;;;;;5022540;28;20049;-68
2022/09/12 08:01:21;;;;;;;16.58;11.13;;;15.80;99.90;;;;;;5032506;28;20543;-68
2022/09/12 08:03:53;;;;;;;15.25;10.85;;;15.80;99.90;;;;;;5020151;28;20501;-68
2022/09/12 08:06:24;;;;;;;13.55;10.27;;;15.90;99.90;;;;;;5005761;28;20037;-67
2022/09/12 08:08:54;;;;;;;15.45;11.32;;;16.10;99.90;;;;;;5035425;28;20052;-68
2022/09/12 08:11:22;;;;;;;15.20;10.23;;;16.20;99.90;;;;;;5028465;28;20365;-70
2022/09/12 08:13:51;;;;;;;13.90;10.57;;;16.30;99.90;;;;;;5024621;28;20473;-68
2022/09/12 08:16:25;;;;;;;14.98;11.52;;;16.40;99.90;;;;;;5017400;28;20052;-70
2022/09/12 08:18:52;;;;;;;16.55;11.77;;;16.50;99.90;;;;;;5025718;28;20195;-68
2022/09/12 08:21:23;;;;;;;14.45;11.23;;;16.50;99.90;;;;;;5019200;28;20412;-68
2022/09/12 08:24:02;;;;;;;15.95;11.55;;;16.60;99.90;;;;;;5027938;28;20474;-69
2022/09/12 08:26:31;;;;;;;17.27;12.68;;;16.60;99.90;;;;;;5029890;28;20500;-68
2022/09/12 08:28:59;;;;;;;15.77;12.38;;;16.80;99.90;;;;;;5037931;28;20525;-68
2022/09/12 08:31:27;;;;;;;16.92;11.77;;;17.00;99.90;;;;;;5046796;28;20504;-68
2022/09/12 08:33:55;;;;;;;13.30;10.52;;;17.10;99.90;;;;;;5010286;28;20077;-67
2022/09/12 08:36:25;;;;;;;14.13;11.70;;;17.30;99.90;;;;;;5031431;28;20227;-69
2022/09/12 08:38:58;;;;;;;16.17;12.57;;;17.40;99.90;;;;;;5039469;28;20211;-69
2022/09/12 08:41:36;;;;;;;16.35;11.73;;;17.50;99.90;;;;;;5040439;28;20048;-69
2022/09/12 08:44:41;;;;;;;14.57;11.70;;;17.60;99.90;;;;;;5046436;28;20049;-69
2022/09/12 08:47:17;;;;;;;13.88;11.13;;;17.70;99.90;;;;;;5041833;28;20056;-69
2022/09/12 08:49:44;;;;;;;17.20;12.15;;;17.80;99.90;;;;;;5041401;28;20515;-69
2022/09/12 08:52:25;;;;;;;15.43;12.13;;;18.00;99.90;;;;;;5028366;28;20451;-67
2022/09/12 08:54:55;;;;;;;13.32;10.63;;;18.00;99.90;;;;;;5028431;28;20160;-68
2022/09/12 08:57:23;;;;;;;14.52;11.68;;;18.20;99.90;;;;;;5017323;28;20061;-68
2022/09/12 08:59:51;;;;;;;13.80;10.93;;;18.30;99.90;;;;;;5021833;28;20045;-68
2022/09/12 09:02:46;;;;;;;13.15;10.35;;;18.40;99.90;;;;;;5022315;28;20361;-68
2022/09/12 09:05:42;;;;;;;13.20;10.15;;;18.50;99.90;;;;;;5006021;28;20572;-68
2022/09/12 09:08:50;;;;;;;14.25;9.80;;;18.60;99.90;;;;;;5028583;28;20056;-69
2022/09/12 09:11:39;;;;;;;11.50;9.35;;;18.70;99.90;;;;;;5027698;28;20531;-69
2022/09/12 09:17:14;;;;;;;11.02;8.65;;;18.90;99.90;;;;;;5038875;28;20049;-69
2022/09/12 09:19:47;;;;;;;11.30;8.98;;;19.00;99.90;;;;;;5027763;28;20466;-68
2022/09/12 09:22:33;;;;;;;14.55;8.98;;;19.10;99.90;;;;;;5041666;28;20043;-69
2022/09/12 09:25:26;;;;;;;10.73;7.95;;;19.20;99.90;;;;;;5045327;28;20547;-69
2022/09/12 09:28:04;;;;;;;8.60;7.50;;;19.40;99.90;;;;;;5028149;28;20048;-68
2022/09/12 09:30:34;;;;;;;11.27;8.27;;;19.50;99.90;;;;;;5039691;28;20160;-69
2022/09/12 09:33:05;;;;;;;9.98;8.18;;;19.60;99.90;;;;;;5039549;28;20041;-69
2022/09/12 09:35:45;;;;;;;18.77;8.15;;;19.60;99.90;;;;;;5046892;28;20445;-69
2022/09/12 09:38:12;;;;;;;10.85;7.45;;;19.70;99.90;;;;;;5040029;28;20094;-68
2022/09/12 09:41:06;;;;;;;8.35;7.38;;;19.80;99.90;;;;;;5024122;28;20057;-68
2022/09/12 09:43:33;;;;;;;10.68;8.00;;;20.00;99.90;;;;;;5024949;28;20049;-68
2022/09/12 09:46:00;;;;;;;8.27;6.88;;;20.10;99.90;;;;;;5021163;28;20103;-68
2022/09/12 09:48:32;;;;;;;9.23;7.07;;;20.20;99.90;;;;;;5033861;28;20471;-69
2022/09/12 09:51:03;;;;;;;9.15;7.55;;;20.20;99.90;;;;;;5027650;28;20052;-67
2022/09/12 09:53:47;;;;;;;13.73;8.75;;;20.30;99.90;;;;;;5038754;28;20376;-69
2022/09/12 09:56:20;;;;;;;8.57;6.78;;;20.50;99.90;;;;;;5025492;28;20050;-67
2022/09/12 09:58:49;;;;;;;7.05;6.03;;;20.70;99.90;;;;;;5016796;28;20052;-68
2022/09/12 10:01:18;;;;;;;7.80;6.95;;;20.90;99.90;;;;;;5031225;28;20073;-70
2022/09/12 10:03:54;;;;;;;9.40;7.28;;;21.10;99.90;;;;;;5021928;28;20049;-68
2022/09/12 10:06:31;;;;;;;9.27;7.72;;;21.20;99.90;;;;;;5010159;28;20420;-69
2022/09/12 10:09:19;;;;;;;9.35;8.13;;;21.10;99.90;;;;;;5028741;28;20525;-68
2022/09/12 10:11:48;;;;;;;8.88;7.70;;;21.20;99.90;;;;;;5031714;28;20049;-69
2022/09/12 10:14:33;;;;;;;10.05;7.38;;;21.20;99.90;;;;;;5041179;28;20045;-69
2022/09/12 10:17:21;;;;;;;13.57;7.85;;;21.10;99.90;;;;;;5035348;28;20416;-68
2022/09/12 10:19:49;;;;;;;13.55;9.23;;;21.20;99.90;;;;;;5031542;28;20045;-69
2022/09/12 10:22:37;;;;;;;10.65;7.28;;;21.30;99.90;;;;;;5017593;28;20040;-69
2022/09/12 10:25:11;;;;;;;10.80;8.38;;;21.80;99.90;;;;;;5030031;28;20049;-68
2022/09/12 10:27:40;;;;;;;11.65;8.25;;;22.10;99.90;;;;;;5030551;28;20041;-68
2022/09/12 10:30:18;;;;;;;9.35;8.23;;;22.30;99.90;;;;;;5024151;28;20375;-69
2022/09/12 10:32:49;;;;;;;10.57;8.60;;;22.50;99.90;;;;;;5038387;28;20079;-69
2022/09/12 10:35:23;;;;;;;8.82;7.60;;;22.50;99.90;;;;;;5027062;28;20060;-70
2022/09/12 10:37:56;;;;;;;8.23;7.43;;;22.70;99.90;;;;;;5026702;28;20046;-68
2022/09/12 10:40:30;;;;;;;8.70;7.80;;;23.00;99.90;;;;;;5025121;28;20076;-68
2022/09/12 10:42:59;;;;;;;9.30;7.88;;;23.20;99.90;;;;;;4989352;28;20107;-68
2022/09/12 10:45:34;;;;;;;8.48;7.57;;;23.20;99.90;;;;;;5026764;28;20041;-69
2022/09/12 10:48:31;;;;;;;8.07;7.28;;;23.20;99.90;;;;;;5027344;28;20049;-68
2022/09/12 10:51:00;;;;;;;9.35;7.82;;;23.60;99.90;;;;;;5002290;28;20037;-68
2022/09/12 10:53:40;;;;;;;8.05;7.15;;;23.90;99.90;;;;;;5040646;28;20149;-69
2022/09/12 10:56:17;;;;;;;7.65;6.78;;;24.00;99.90;;;;;;5025537;28;20503;-69
2022/09/12 10:58:57;;;;;;;8.18;7.38;;;24.50;99.90;;;;;;5030968;28;20077;-68
2022/09/12 11:01:43;;;;;;;9.02;7.93;;;24.70;99.90;;;;;;5021651;28;20069;-69
2022/09/12 11:04:29;;;;;;;8.65;7.65;;;24.90;99.90;;;;;;5029297;28;20052;-69
2022/09/12 11:07:28;;;;;;;10.35;7.55;;;24.90;99.90;;;;;;5026996;28;20492;-67
2022/09/12 11:10:01;;;;;;;10.63;8.07;;;25.20;99.90;;;;;;5030378;28;20042;-69
2022/09/12 11:13:13;;;;;;;13.13;8.43;;;25.60;99.90;;;;;;5044692;28;20033;-68
2022/09/12 11:16:05;;;;;;;11.63;8.38;;;26.20;99.90;;;;;;5037530;28;20504;-70
2022/09/12 11:18:43;;;;;;;10.43;8.20;;;26.80;99.90;;;;;;5025969;28;20467;-68
2022/09/12 11:21:39;;;;;;;9.90;8.85;;;26.50;99.90;;;;;;5027564;28;20076;-68
2022/09/12 11:24:27;;;;;;;10.07;9.07;;;25.70;99.90;;;;;;5020629;28;20499;-68
2022/09/12 11:27:09;;;;;;;9.80;8.90;;;25.20;99.90;;;;;;5012745;28;20432;-68
2022/09/12 11:29:54;;;;;;;10.20;9.20;;;25.00;99.90;;;;;;5034821;28;20060;-68
2022/09/12 11:32:49;;;;;;;11.30;9.13;;;24.90;99.90;;;;;;5045735;28;20049;-68
2022/09/12 11:35:29;;;;;;;10.43;9.15;;;25.00;99.90;;;;;;5029662;28;20053;-69
2022/09/12 11:38:07;;;;;;;9.35;8.45;;;25.10;99.90;;;;;;5029854;28;20049;-68
2022/09/12 11:40:53;;;;;;;9.60;8.70;;;25.80;99.90;;;;;;5036490;28;20550;-68
2022/09/12 11:43:47;;;;;;;9.82;8.82;;;25.60;99.90;;;;;;5042729;28;20037;-69
2022/09/12 11:46:21;;;;;;;11.68;9.15;;;25.20;99.90;;;;;;5024364;28;20038;-68
2022/09/12 11:48:54;;;;;;;8.95;8.05;;;25.10;99.90;;;;;;5002154;28;20079;-68
2022/09/12 11:51:30;;;;;;;8.75;7.85;;;25.40;99.90;;;;;;5038609;28;20466;-69
2022/09/12 11:54:30;;;;;;;9.95;9.02;;;26.50;99.90;;;;;;5039325;28;20049;-68
2022/09/12 11:57:07;;;;;;;9.77;8.85;;;26.40;99.90;;;;;;5019142;28;20053;-68
2022/09/12 11:59:45;;;;;;;9.40;8.50;;;26.20;99.90;;;;;;5024470;28;20041;-68
2022/09/12 12:02:26;;;;;;;9.50;8.52;;;26.10;99.90;;;;;;5023314;28;20038;-68
2022/09/12 12:05:19;;;;;;;9.15;8.30;;;26.60;99.90;;;;;;5024183;28;20041;-68
2022/09/12 12:07:56;;;;;;;10.52;8.30;;;27.60;99.90;;;;;;5003118;28;20053;-68
2022/09/12 12:10:33;;;;;;;9.00;8.20;;;28.00;99.90;;;;;;5024863;28;20044;-69
2022/09/12 12:13:07;;;;;;;8.35;7.63;;;28.00;99.90;;;;;;5030077;28;20424;-69
2022/09/12 12:15:45;;;;;;;8.73;7.93;;;28.30;99.90;;;;;;5041945;28;20365;-67
2022/09/12 12:18:25;;;;;;;9.23;8.18;;;28.40;99.90;;;;;;5024167;28;20057;-67
2022/09/12 12:20:54;;;;;;;10.23;9.30;;;28.20;99.90;;;;;;5028777;28;20106;-68
2022/09/12 12:23:33;;;;;;;8.85;8.02;;;27.80;99.90;;;;;;5025013;28;20058;-67
2022/09/12 12:26:02;;;;;;;8.95;8.15;;;27.70;99.90;;;;;;5021778;28;20079;-67
2022/09/12 12:28:57;;;;;;;9.95;9.02;;;27.80;99.90;;;;;;5018819;28;20095;-68
2022/09/12 12:31:25;;;;;;;8.50;7.70;;;27.20;99.90;;;;;;5027401;28;20041;-67
2022/09/12 12:33:59;;;;;;;10.10;9.02;;;27.40;99.90;;;;;;5038068;28;20069;-68
2022/09/12 12:36:39;;;;;;;9.25;8.25;;;27.70;99.90;;;;;;5042476;28;20041;-68
2022/09/12 12:39:31;;;;;;;9.20;8.30;;;27.90;99.90;;;;;;5040160;28;20045;-68
2022/09/12 12:41:59;;;;;;;10.27;9.27;;;28.40;99.90;;;;;;5018555;28;20033;-67
2022/09/12 12:44:46;;;;;;;9.27;8.40;;;28.40;99.90;;;;;;5019556;28;20137;-68
2022/09/12 12:47:21;;;;;;;11.07;10.05;;;28.20;99.90;;;;;;5026572;28;20042;-68
2022/09/12 12:50:13;;;;;;;9.73;8.70;;;27.10;99.90;;;;;;5039012;28;20045;-69
2022/09/12 12:52:58;;;;;;;8.20;7.40;;;27.20;99.90;;;;;;5025224;28;20652;-67
2022/09/12 12:55:32;;;;;;;8.23;7.53;;;27.70;99.90;;;;;;5011564;28;20132;-68
2022/09/12 12:58:01;;;;;;;11.55;7.75;;;28.10;99.90;;;;;;5010512;28;20417;-68
2022/09/12 13:00:34;;;;;;;8.98;8.07;;;28.20;99.90;;;;;;5012123;28;20504;-66
2022/09/12 13:03:07;;;;;;;9.95;8.57;;;28.60;99.90;;;;;;5030685;28;20373;-67
2022/09/12 13:05:48;;;;;;;9.32;8.52;;;29.00;99.90;;;;;;5014704;28;20512;-68
2022/09/12 13:08:18;;;;;;;9.80;8.82;;;28.80;99.90;;;;;;4998401;28;20136;-69
2022/09/12 13:10:50;;;;;;;9.48;8.68;;;28.60;99.90;;;;;;5032016;28;20068;-67
2022/09/12 13:13:29;;;;;;;10.27;9.30;;;28.50;99.90;;;;;;5030847;28;20725;-67
2022/09/12 13:15:57;;;;;;;9.40;8.60;;;28.60;99.90;;;;;;5030827;28;20072;-67
2022/09/12 13:18:29;;;;;;;9.60;8.60;;;29.10;99.90;;;;;;5014544;28;20147;-68
2022/09/12 13:21:14;;;;;;;10.32;9.25;;;29.50;99.90;;;;;;5031884;28;20050;-66